Time;durP1;ratioP1;P1;durP2;ratioP2;P2;SDS_P1;SDS_P2;PMS_P1;PMS_P2;Temp;Humidity;BMP_temperature;BMP_pressure;BME280_temperature;BME280_humidity;BME280_pressure;Samples;Min_cycle;Max_cycle;Signal;HPM_P1;HPM_P2
2023/02/23 00:01:21;;;;;;;86.05;39.95;;;7.30;99.90;;;;;;6198590;23;20012;-84
2023/02/23 00:03:48;;;;;;;80.45;38.58;;;7.50;99.90;;;;;;6218355;23;20061;-84
2023/02/23 00:06:15;;;;;;;79.32;39.60;;;7.60;99.90;;;;;;6208711;23;20016;-81
2023/02/23 00:08:41;;;;;;;81.82;39.35;;;7.60;99.90;;;;;;6211725;23;20022;-83
2023/02/23 00:11:13;;;;;;;75.88;37.38;;;7.40;99.90;;;;;;6208993;23;20020;-83
2023/02/23 00:13:40;;;;;;;77.65;38.45;;;7.30;99.90;;;;;;6212169;23;20038;-83
2023/02/23 00:19:37;;;;;;;85.93;40.92;;;7.30;99.90;;;;;;6234660;23;20034;-83
2023/02/23 00:22:03;;;;;;;77.63;38.80;;;7.20;99.90;;;;;;6236086;23;20017;-85
2023/02/23 00:24:29;;;;;;;82.00;39.95;;;7.20;99.90;;;;;;6210302;23;20030;-82
2023/02/23 00:26:54;;;;;;;78.25;40.20;;;7.50;99.90;;;;;;6208693;23;20046;-82
2023/02/23 00:29:23;;;;;;;81.85;40.83;;;7.30;99.90;;;;;;6261753;23;20016;-82
2023/02/23 00:35:32;;;;;;;94.88;43.72;;;7.70;99.90;;;;;;6260713;23;20077;-82
2023/02/23 00:37:58;;;;;;;92.88;44.00;;;7.60;99.90;;;;;;6210627;23;20066;-82
2023/02/23 00:40:24;;;;;;;95.75;44.22;;;7.30;99.90;;;;;;6261238;23;20024;-83
2023/02/23 00:42:51;;;;;;;103.15;46.58;;;7.70;99.90;;;;;;6209885;23;20314;-82
2023/02/23 00:45:19;;;;;;;104.10;46.63;;;7.30;99.90;;;;;;6212036;23;20008;-82
2023/02/23 00:47:44;;;;;;;111.82;47.63;;;7.60;99.90;;;;;;6209270;23;20054;-82
2023/02/23 00:50:15;;;;;;;108.72;48.10;;;7.80;99.90;;;;;;6234636;23;20016;-83
2023/02/23 00:52:43;;;;;;;103.72;49.17;;;7.30;99.90;;;;;;6209017;23;20019;-82
2023/02/23 00:55:13;;;;;;;105.85;48.80;;;7.70;99.90;;;;;;6209510;23;20011;-84
2023/02/23 00:57:40;;;;;;;102.68;48.03;;;7.80;99.90;;;;;;6210571;23;20026;-82
2023/02/23 01:00:17;;;;;;;107.07;49.17;;;7.40;99.90;;;;;;6234095;23;20012;-83
2023/02/23 01:06:24;;;;;;;105.30;48.50;;;7.60;99.90;;;;;;6261899;23;20015;-84
2023/02/23 01:08:55;;;;;;;109.45;49.67;;;7.40;99.90;;;;;;6234343;23;20004;-83
2023/02/23 01:11:26;;;;;;;100.65;48.22;;;7.60;99.90;;;;;;6211326;23;20099;-84
2023/02/23 01:13:54;;;;;;;115.30;49.88;;;7.30;99.90;;;;;;6217243;23;20008;-82
2023/02/23 01:20:40;;;;;;;113.72;49.88;;;7.40;99.90;;;;;;6265530;23;20067;-81
2023/02/23 01:23:07;;;;;;;109.80;50.47;;;7.30;99.90;;;;;;6211603;23;20016;-83
2023/02/23 01:25:33;;;;;;;117.20;51.80;;;7.70;99.90;;;;;;6236645;23;20031;-83
2023/02/23 01:28:00;;;;;;;120.18;52.95;;;7.40;99.90;;;;;;6211126;23;20016;-83
2023/02/23 01:30:25;;;;;;;115.65;51.88;;;7.60;99.90;;;;;;6210013;23;20122;-82
2023/02/23 01:36:35;;;;;;;116.03;50.25;;;7.60;99.90;;;;;;6260977;23;20019;-82
2023/02/23 01:39:05;;;;;;;114.18;51.17;;;7.30;99.90;;;;;;6210186;23;20035;-83
2023/02/23 01:41:33;;;;;;;117.65;51.83;;;7.30;99.90;;;;;;6209699;23;20340;-82
2023/02/23 01:44:27;;;;;;;122.18;51.25;;;7.50;99.90;;;;;;6209761;23;20012;-82
2023/02/23 01:50:55;;;;;;;115.90;49.22;;;7.30;99.90;;;;;;6265146;23;20012;-82
2023/02/23 01:53:24;;;;;;;110.50;49.50;;;7.60;99.90;;;;;;6237867;23;20087;-82
2023/02/23 01:55:57;;;;;;;120.20;50.05;;;7.30;99.90;;;;;;6212761;23;20038;-82
2023/02/23 01:58:25;;;;;;;117.75;51.10;;;7.40;99.90;;;;;;6237444;23;20012;-85
2023/02/23 02:00:54;;;;;;;119.55;50.28;;;7.30;99.90;;;;;;6212720;23;20074;-84
2023/02/23 02:03:28;;;;;;;113.15;49.55;;;7.40;99.90;;;;;;6213396;23;20012;-83
2023/02/23 02:05:55;;;;;;;118.88;51.58;;;7.70;99.90;;;;;;6237904;23;20040;-82
2023/02/23 02:08:23;;;;;;;121.40;51.53;;;7.30;99.90;;;;;;6213688;23;20016;-83
2023/02/23 02:10:54;;;;;;;121.05;50.40;;;7.50;99.90;;;;;;6240585;23;20063;-84
2023/02/23 02:13:24;;;;;;;125.68;50.85;;;7.40;99.90;;;;;;6215306;22;20042;-81
2023/02/23 02:16:11;;;;;;;118.03;51.00;;;7.70;99.90;;;;;;6237118;23;20035;-82
2023/02/23 02:22:30;;;;;;;127.97;50.45;;;7.30;99.90;;;;;;6235672;23;20020;-83
2023/02/23 02:25:28;;;;;;;119.82;49.25;;;7.30;99.90;;;;;;6270822;23;20012;-82
2023/02/23 02:28:28;;;;;;;118.28;50.03;;;7.60;99.90;;;;;;6217561;23;20012;-83
2023/02/23 02:31:19;;;;;;;126.40;51.25;;;7.30;99.90;;;;;;6239894;23;20312;-82
2023/02/23 02:37:55;;;;;;;124.35;50.10;;;7.50;99.90;;;;;;6262884;22;20321;-82
2023/02/23 02:40:31;;;;;;;122.40;49.78;;;7.50;99.90;;;;;;6074025;23;20037;-83
2023/02/23 02:43:10;;;;;;;125.03;51.90;;;7.40;99.90;;;;;;6093294;23;20081;-83
2023/02/23 02:45:59;;;;;;;123.45;51.60;;;7.50;99.90;;;;;;6045257;23;20022;-82
2023/02/23 02:52:07;;;;;;;118.40;47.30;;;7.40;99.90;;;;;;6101743;23;20041;-84
2023/02/23 02:54:46;;;;;;;125.50;50.63;;;7.30;99.90;;;;;;6073963;23;20019;-85
2023/02/23 02:57:13;;;;;;;123.93;51.00;;;7.50;99.90;;;;;;6045827;23;20024;-84
2023/02/23 04:18:35;;;;;;;126.78;50.17;;;7.40;99.90;;;;;;6217214;23;20028;-83
2023/02/23 04:21:02;;;;;;;134.63;50.85;;;7.40;99.90;;;;;;6191403;23;20019;-84
2023/02/23 04:23:28;;;;;;;136.77;51.35;;;7.80;99.90;;;;;;6192587;23;20022;-85
2023/02/23 04:25:54;;;;;;;131.07;48.17;;;7.30;99.90;;;;;;6192471;23;20043;-85
2023/02/23 04:28:22;;;;;;;136.38;52.17;;;7.30;99.90;;;;;;6215175;23;20055;-84
2023/02/23 04:30:48;;;;;;;135.40;51.13;;;7.40;99.90;;;;;;6243061;23;20015;-85
2023/02/23 04:33:14;;;;;;;135.07;51.40;;;7.60;99.90;;;;;;6191186;23;20432;-85
2023/02/23 04:35:40;;;;;;;128.38;50.65;;;7.40;99.90;;;;;;6191251;23;20024;-85
2023/02/23 04:38:06;;;;;;;129.52;49.67;;;7.70;99.90;;;;;;6190182;23;20047;-83
2023/02/23 04:40:32;;;;;;;137.07;51.22;;;7.70;99.90;;;;;;6190751;23;20016;-84
2023/02/23 04:42:57;;;;;;;128.23;48.80;;;7.50;99.90;;;;;;6217323;23;20008;-84
2023/02/23 04:45:24;;;;;;;138.88;51.13;;;7.70;99.90;;;;;;6192096;23;20078;-82
2023/02/23 04:47:51;;;;;;;131.77;49.50;;;7.60;99.90;;;;;;6242491;23;20005;-85
2023/02/23 04:50:17;;;;;;;135.85;48.75;;;7.30;99.90;;;;;;6191834;23;20016;-83
2023/02/23 04:52:43;;;;;;;130.32;49.17;;;7.30;99.90;;;;;;6215056;23;20012;-85
2023/02/23 04:55:17;;;;;;;130.15;46.85;;;7.30;99.90;;;;;;6216574;23;20044;-83
2023/02/23 04:57:43;;;;;;;122.47;45.45;;;7.30;99.90;;;;;;6188436;23;20313;-86
2023/02/23 05:00:09;;;;;;;127.35;48.08;;;7.60;99.90;;;;;;6241330;23;20377;-84
2023/02/23 05:02:55;;;;;;;122.30;47.60;;;7.20;99.90;;;;;;6215355;23;20008;-85
2023/02/23 05:05:21;;;;;;;121.60;46.15;;;7.70;99.90;;;;;;6215831;23;20016;-85
2023/02/23 05:07:47;;;;;;;118.70;45.25;;;7.20;99.90;;;;;;6215018;23;20012;-83
2023/02/23 05:10:13;;;;;;;118.45;45.13;;;7.70;99.90;;;;;;6215640;23;20070;-83
2023/02/23 05:12:38;;;;;;;115.78;44.58;;;7.70;99.90;;;;;;6191043;23;20565;-83
2023/02/23 05:15:04;;;;;;;122.72;46.97;;;7.40;99.90;;;;;;6190194;23;20367;-82
2023/02/23 05:17:30;;;;;;;116.57;43.45;;;7.70;99.90;;;;;;6214411;23;20127;-82
2023/02/23 05:19:56;;;;;;;120.18;45.13;;;7.30;99.90;;;;;;6216551;23;20380;-84
2023/02/23 05:22:22;;;;;;;120.28;47.10;;;7.20;99.90;;;;;;6217593;23;20016;-86
2023/02/23 05:24:47;;;;;;;121.05;45.75;;;7.70;99.90;;;;;;6216614;23;20456;-84
2023/02/23 05:27:14;;;;;;;107.35;42.80;;;7.70;99.90;;;;;;6190768;23;20054;-86
2023/02/23 05:29:40;;;;;;;117.70;44.95;;;7.40;99.90;;;;;;6217205;23;20475;-83
2023/02/23 05:35:47;;;;;;;101.90;41.70;;;7.60;99.90;;;;;;6244010;23;20175;-83
2023/02/23 05:38:13;;;;;;;98.25;40.17;;;7.60;99.90;;;;;;6216094;23;20020;-82
2023/02/23 05:40:39;;;;;;;95.47;36.75;;;7.30;99.90;;;;;;6192030;23;20086;-85
2023/02/23 05:43:05;;;;;;;86.20;37.88;;;7.10;99.90;;;;;;6191726;23;20095;-85
2023/02/23 05:45:32;;;;;;;78.68;35.33;;;7.30;99.90;;;;;;6191673;23;20443;-85
2023/02/23 05:47:58;;;;;;;85.50;36.20;;;7.20;99.90;;;;;;6190639;23;20096;-85
2023/02/23 05:50:24;;;;;;;84.65;35.00;;;7.60;99.90;;;;;;6215970;23;20436;-85
2023/02/23 05:52:50;;;;;;;83.03;36.10;;;7.20;99.90;;;;;;6241374;23;20027;-84
2023/02/23 05:55:16;;;;;;;79.50;35.30;;;7.50;99.90;;;;;;6215349;23;20016;-83
2023/02/23 05:57:42;;;;;;;91.50;36.75;;;7.20;99.90;;;;;;6190983;23;20504;-84
2023/02/23 06:00:09;;;;;;;84.32;36.92;;;7.20;99.90;;;;;;6216882;23;20043;-82
2023/02/23 06:02:35;;;;;;;81.00;34.28;;;7.50;99.90;;;;;;6191054;23;20042;-83
2023/02/23 06:05:01;;;;;;;74.35;34.35;;;7.60;99.90;;;;;;6190655;23;20091;-85
2023/02/23 06:07:27;;;;;;;66.78;29.65;;;7.20;99.90;;;;;;6192172;23;20043;-84
2023/02/23 06:09:52;;;;;;;73.55;32.30;;;7.10;99.90;;;;;;6217163;23;20012;-82
2023/02/23 06:12:18;;;;;;;71.00;33.05;;;7.10;99.90;;;;;;6192829;23;20022;-82
2023/02/23 06:14:44;;;;;;;70.85;33.05;;;7.10;99.90;;;;;;6215542;23;20406;-84
2023/02/23 06:17:10;;;;;;;70.65;34.15;;;7.70;99.90;;;;;;6191648;23;20016;-84
2023/02/23 06:19:35;;;;;;;66.80;31.52;;;7.40;99.90;;;;;;6192418;23;20087;-82
2023/02/23 06:22:01;;;;;;;67.88;31.27;;;7.40;99.90;;;;;;6191650;23;20020;-85
2023/02/23 06:24:27;;;;;;;70.30;32.70;;;7.60;99.90;;;;;;6217958;23;20012;-84
2023/02/23 06:26:52;;;;;;;71.93;32.53;;;7.30;99.90;;;;;;6216058;23;20470;-84
2023/02/23 06:29:18;;;;;;;72.93;33.35;;;7.60;99.90;;;;;;6192579;23;20054;-85
2023/02/23 06:31:44;;;;;;;74.78;33.38;;;7.20;99.90;;;;;;6193307;23;20051;-87
2023/02/23 06:34:10;;;;;;;65.63;33.35;;;7.60;99.90;;;;;;6218954;23;20075;-87
2023/02/23 06:36:36;;;;;;;65.43;31.77;;;7.60;99.90;;;;;;6216410;23;20023;-80
2023/02/23 06:39:03;;;;;;;72.85;32.85;;;7.20;99.90;;;;;;6216766;23;20440;-85
2023/02/23 06:41:30;;;;;;;65.32;32.55;;;7.10;99.90;;;;;;6217118;23;20093;-83
2023/02/23 06:43:55;;;;;;;59.78;30.85;;;7.20;99.90;;;;;;6192033;23;20294;-87
2023/02/23 06:46:23;;;;;;;61.60;28.48;;;7.70;99.90;;;;;;6193941;23;20055;-86
2023/02/23 06:49:45;;;;;;;52.35;28.33;;;7.70;99.90;;;;;;6193607;23;20455;-88
2023/02/23 06:52:12;;;;;;;52.20;28.27;;;7.50;99.90;;;;;;6196530;23;20016;-87
2023/02/23 06:54:40;;;;;;;49.90;27.23;;;7.40;99.90;;;;;;6200039;23;20016;-83
2023/02/23 06:57:09;;;;;;;48.85;27.25;;;7.00;99.90;;;;;;6197847;23;20012;-84
2023/02/23 06:59:35;;;;;;;47.65;25.95;;;7.10;99.90;;;;;;6197821;23;20063;-83
2023/02/23 07:02:04;;;;;;;53.33;28.20;;;7.00;99.90;;;;;;6193472;23;20008;-85
2023/02/23 07:04:31;;;;;;;50.83;26.58;;;7.50;99.90;;;;;;6192948;23;20015;-84
2023/02/23 07:06:57;;;;;;;46.85;26.33;;;7.10;99.90;;;;;;6195208;23;20092;-84
2023/02/23 07:09:22;;;;;;;45.17;22.92;;;7.30;99.90;;;;;;6194411;23;20024;-84
2023/02/23 07:11:48;;;;;;;47.63;27.15;;;7.00;99.90;;;;;;6193335;23;20451;-84
2023/02/23 07:14:14;;;;;;;46.60;26.85;;;6.90;99.90;;;;;;6193163;23;20047;-86
2023/02/23 07:16:40;;;;;;;47.10;26.48;;;7.10;99.90;;;;;;6197754;23;20484;-84
2023/02/23 07:19:06;;;;;;;46.95;27.15;;;7.20;99.90;;;;;;6191538;23;20036;-84
2023/02/23 07:21:32;;;;;;;45.55;24.63;;;7.40;99.90;;;;;;6216845;23;20008;-84
2023/02/23 07:23:58;;;;;;;50.83;27.33;;;7.10;99.90;;;;;;6192915;23;20020;-85
2023/02/23 07:26:24;;;;;;;49.53;26.80;;;7.00;99.90;;;;;;6201887;23;20432;-86
2023/02/23 07:28:50;;;;;;;47.10;24.50;;;7.00;99.90;;;;;;6190586;23;20125;-82
2023/02/23 07:31:16;;;;;;;44.92;26.23;;;7.50;99.90;;;;;;6190066;23;20058;-84
2023/02/23 07:34:00;;;;;;;48.33;26.80;;;7.40;99.90;;;;;;6192124;23;20032;-86
2023/02/23 07:36:26;;;;;;;47.05;25.85;;;7.20;99.90;;;;;;6188909;23;20035;-83
2023/02/23 07:38:51;;;;;;;47.70;27.02;;;7.30;99.90;;;;;;6215545;23;20378;-84
2023/02/23 07:41:23;;;;;;;44.35;25.83;;;7.30;99.90;;;;;;6213713;23;20020;-85
2023/02/23 07:43:52;;;;;;;44.55;26.15;;;7.50;99.90;;;;;;6242643;23;20032;-82
2023/02/23 07:46:17;;;;;;;44.67;27.05;;;7.20;99.90;;;;;;6191266;23;20066;-84
2023/02/23 07:48:44;;;;;;;47.15;26.25;;;7.40;99.90;;;;;;6188642;23;20020;-84
2023/02/23 07:51:16;;;;;;;45.15;26.75;;;7.00;99.90;;;;;;6212233;23;20020;-84
2023/02/23 07:54:03;;;;;;;47.05;25.90;;;7.40;99.90;;;;;;6189656;23;20016;-84
2023/02/23 07:56:40;;;;;;;43.78;25.15;;;7.40;99.90;;;;;;6190175;23;20016;-84
2023/02/23 07:59:18;;;;;;;42.15;25.13;;;7.00;99.90;;;;;;6191048;23;20016;-85
2023/02/23 08:01:44;;;;;;;47.47;25.05;;;7.40;99.90;;;;;;6213207;23;20012;-84
2023/02/23 08:04:12;;;;;;;46.58;25.20;;;7.40;99.90;;;;;;6188117;23;20016;-84
2023/02/23 08:06:38;;;;;;;45.55;25.13;;;7.10;99.90;;;;;;6213310;23;20089;-85
2023/02/23 08:09:04;;;;;;;47.33;26.08;;;7.30;99.90;;;;;;6161289;23;20031;-84
2023/02/23 08:11:36;;;;;;;44.03;24.83;;;7.10;99.90;;;;;;6189016;23;20020;-83
2023/02/23 08:14:15;;;;;;;48.17;26.10;;;7.20;99.90;;;;;;6215210;23;20008;-82
2023/02/23 08:16:41;;;;;;;46.40;25.80;;;7.10;99.90;;;;;;6212889;23;20016;-82
2023/02/23 08:19:07;;;;;;;46.20;26.65;;;7.40;99.90;;;;;;6190677;23;20020;-83
2023/02/23 08:21:32;;;;;;;47.13;25.73;;;7.30;99.90;;;;;;6190815;23;20040;-82
2023/02/23 08:23:58;;;;;;;47.33;26.35;;;7.40;99.90;;;;;;6189998;23;20016;-82
2023/02/23 08:26:27;;;;;;;52.05;26.05;;;7.00;99.90;;;;;;6191143;23;20048;-83
2023/02/23 08:28:56;;;;;;;47.33;25.58;;;7.20;99.90;;;;;;6187206;23;20090;-83
2023/02/23 08:31:26;;;;;;;45.97;26.33;;;7.30;99.90;;;;;;6189181;23;20020;-83
2023/02/23 08:37:56;;;;;;;45.97;24.23;;;7.30;99.90;;;;;;6177006;23;20024;-84
2023/02/23 10:28:03;;;;;;;97.22;37.55;;;8.10;99.90;;;;;;6267369;22;20051;-84
2023/02/23 10:30:41;;;;;;;102.07;40.22;;;8.20;99.90;;;;;;6058617;23;20038;-84
2023/02/23 10:33:22;;;;;;;101.15;36.53;;;8.00;99.90;;;;;;6042138;23;20025;-84
2023/02/23 10:35:59;;;;;;;105.82;39.72;;;8.20;99.90;;;;;;6065337;23;20014;-84
2023/02/23 10:38:28;;;;;;;103.50;36.00;;;7.90;99.90;;;;;;6041774;23;20400;-85
2023/02/23 10:41:04;;;;;;;99.07;34.83;;;8.10;99.90;;;;;;6038963;23;20011;-85
2023/02/23 10:47:42;;;;;;;93.00;29.25;;;8.10;99.90;;;;;;5866845;24;20025;-86
2023/02/23 11:02:23;;;;;;;;;;;;;;;;;;;;;
2023/02/23 11:05:37;;;;;;;103.82;33.63;;;7.80;99.90;;;;;;5833171;24;20006;-83
2023/02/23 11:09:09;;;;;;;;;;;;;;;;;;;;;
2023/02/23 12:54:56;;;;;;;147.82;38.90;;;8.30;99.90;;;;;;6186432;22;1996795;-82
2023/02/23 12:57:43;;;;;;;135.88;35.72;;;8.40;99.90;;;;;;6130490;23;20025;-82
2023/02/23 13:00:54;;;;;;;70.88;20.02;;;8.20;99.90;;;;;;6128372;23;20028;-83
2023/02/23 13:11:16;;;;;;;36.00;5.28;;;7.70;99.90;;;;;;6121635;23;20028;-83
2023/02/23 13:14:03;;;;;;;56.63;7.30;;;7.20;99.90;;;;;;6095760;23;20020;-81
2023/02/23 13:16:37;;;;;;;58.75;7.35;;;7.20;99.90;;;;;;6120820;23;20045;-83
2023/02/23 13:19:21;;;;;;;67.53;8.13;;;7.50;99.90;;;;;;6097069;23;20056;-83
2023/02/23 13:21:57;;;;;;;70.00;8.38;;;7.20;99.90;;;;;;6095780;23;20354;-82
2023/02/23 13:24:34;;;;;;;77.97;9.48;;;7.10;99.90;;;;;;6095142;23;20022;-82
2023/02/23 13:27:44;;;;;;;61.85;7.95;;;7.10;99.90;;;;;;6119165;23;20013;-82
2023/02/23 13:30:12;;;;;;;73.82;8.32;;;7.10;99.90;;;;;;6013967;23;20424;-82
2023/02/23 13:32:38;;;;;;;65.75;8.20;;;7.00;99.90;;;;;;6036551;23;20098;-82
2023/02/23 13:35:14;;;;;;;64.85;8.63;;;6.70;99.90;;;;;;6036797;23;20014;-83
2023/02/23 13:37:52;;;;;;;73.40;9.10;;;6.60;99.90;;;;;;6035759;23;20042;-82
2023/02/23 13:40:34;;;;;;;86.57;10.60;;;7.00;99.90;;;;;;6037679;23;20330;-81
2023/02/23 13:43:21;;;;;;;88.60;9.90;;;7.10;99.90;;;;;;6014968;23;20015;-81
2023/02/23 13:46:02;;;;;;;89.00;10.15;;;6.70;99.90;;;;;;6037973;23;20011;-81
2023/02/23 13:48:44;;;;;;;84.78;10.52;;;6.90;99.90;;;;;;6013338;23;20019;-81
2023/02/23 13:51:40;;;;;;;76.85;9.93;;;6.70;99.90;;;;;;6014286;23;20027;-83
2023/02/23 13:54:33;;;;;;;82.15;10.15;;;6.80;99.90;;;;;;6036402;23;20412;-82
2023/02/23 13:57:02;;;;;;;90.18;10.25;;;6.40;99.90;;;;;;6025920;23;20011;-83
2023/02/23 13:59:35;;;;;;;67.47;10.00;;;6.50;99.90;;;;;;6015179;23;20029;-82
2023/02/23 14:02:27;;;;;;;93.10;10.25;;;6.50;99.90;;;;;;6037771;23;20479;-82
2023/02/23 14:04:56;;;;;;;80.45;8.63;;;6.50;99.90;;;;;;6039853;23;20034;-85
2023/02/23 14:07:31;;;;;;;78.00;9.80;;;7.00;99.90;;;;;;6143940;23;20023;-84
2023/02/23 14:10:23;;;;;;;;;;;6.90;99.90;;;;;;6160608;23;20017;-83
2023/02/23 14:13:27;;;;;;;78.93;8.95;;;6.70;99.90;;;;;;6161985;23;20018;-83
2023/02/23 14:16:14;;;;;;;78.75;9.98;;;6.90;99.90;;;;;;6040415;23;20030;-83
2023/02/23 14:19:38;;;;;;;91.97;9.32;;;6.60;99.90;;;;;;6006204;23;20111;-83
2023/02/23 14:22:35;;;;;;;79.80;8.68;;;6.50;99.90;;;;;;6038486;23;20078;-86
2023/02/23 14:25:43;;;;;;;78.30;8.82;;;6.50;99.90;;;;;;5847274;24;20101;-83
2023/02/23 14:28:55;;;;;;;64.68;7.97;;;6.60;99.90;;;;;;5925483;24;20031;-85
2023/02/23 14:32:32;;;;;;;;;;;;;;;;;;;;;
2023/02/23 14:35:59;;;;;;;58.95;7.47;;;6.90;99.90;;;;;;5948946;24;20073;-87
2023/02/23 14:39:07;;;;;;;59.58;7.05;;;6.50;99.90;;;;;;5948588;24;20076;-82
2023/02/23 14:46:23;;;;;;;53.05;7.30;;;6.70;99.90;;;;;;5760411;24;20117;-82
2023/02/23 14:49:40;;;;;;;50.58;6.28;;;6.40;99.90;;;;;;5685527;25;20017;-83
2023/02/23 14:52:27;;;;;;;58.28;7.97;;;6.70;99.90;;;;;;5689946;25;20442;-83
2023/02/23 15:45:36;;;;;;;33.35;4.32;;;6.60;99.90;;;;;;5925635;24;20019;-82
2023/02/23 15:49:19;;;;;;;;;;;;;;;;;;;;;
2023/02/23 15:56:04;;;;;;;43.58;4.28;;;6.40;99.90;;;;;;5897450;24;20170;-82
2023/02/23 15:59:09;;;;;;;33.40;4.68;;;6.40;99.90;;;;;;5898718;24;20143;-82
2023/02/23 16:22:44;;;;;;;35.92;6.35;;;6.30;99.90;;;;;;6057920;22;4414409;-82
2023/02/23 16:25:31;;;;;;;34.38;5.28;;;6.30;99.90;;;;;;6192060;23;20328;-82
2023/02/23 16:28:28;;;;;;;37.45;5.60;;;6.20;99.90;;;;;;6190503;23;20324;-81
2023/02/23 16:31:15;;;;;;;32.13;5.97;;;6.10;99.90;;;;;;6214849;23;20012;-81
2023/02/23 16:33:50;;;;;;;32.65;5.50;;;6.20;99.90;;;;;;6068150;23;20014;-82
2023/02/23 16:37:17;;;;;;;38.38;5.20;;;6.00;99.90;;;;;;5983486;24;20030;-82
2023/02/23 16:40:13;;;;;;;27.10;4.57;;;6.20;99.90;;;;;;5919124;24;20701;-81
2023/02/23 16:42:42;;;;;;;28.63;4.20;;;6.10;99.90;;;;;;5926762;23;20088;-82
2023/02/23 16:45:31;;;;;;;29.98;4.47;;;6.20;99.90;;;;;;5926271;24;20021;-84
2023/02/23 16:48:01;;;;;;;28.83;4.18;;;6.00;99.90;;;;;;5901544;24;20028;-85
2023/02/23 16:51:13;;;;;;;28.70;4.30;;;6.00;99.90;;;;;;5949380;24;20017;-85
2023/02/23 16:54:12;;;;;;;32.17;4.60;;;5.90;99.90;;;;;;5926830;24;20081;-82
2023/02/23 16:56:39;;;;;;;36.75;4.55;;;6.00;99.90;;;;;;5949283;24;20032;-84
2023/02/23 16:59:28;;;;;;;26.92;4.95;;;5.90;99.90;;;;;;5974122;24;20062;-84
2023/02/23 17:02:24;;;;;;;32.53;4.50;;;5.80;99.90;;;;;;6019274;23;20019;-84
2023/02/23 17:05:21;;;;;;;28.50;4.75;;;5.80;99.90;;;;;;6027284;23;20103;-83
2023/02/23 17:08:35;;;;;;;31.98;4.32;;;5.80;99.90;;;;;;6013027;23;20010;-85
2023/02/23 17:11:50;;;;;;;32.58;4.55;;;5.80;99.90;;;;;;5982907;23;20040;-83
2023/02/23 17:18:10;;;;;;;30.05;3.75;;;5.40;99.90;;;;;;6063233;23;20112;-84
2023/02/23 17:20:57;;;;;;;29.45;4.70;;;5.40;99.90;;;;;;6013308;23;20014;-83
2023/02/23 17:23:51;;;;;;;30.48;4.22;;;5.50;99.90;;;;;;6041149;23;20022;-82
2023/02/23 17:26:54;;;;;;;26.58;4.10;;;5.40;99.90;;;;;;6040046;23;20022;-83
2023/02/23 17:29:59;;;;;;;;;;;;;;;;;;;;;
2023/02/23 17:32:50;;;;;;;25.88;4.20;;;5.30;99.90;;;;;;6032941;23;20022;-84
2023/02/23 17:39:29;;;;;;;24.88;3.67;;;4.90;99.90;;;;;;6063921;23;20444;-82
2023/02/23 18:02:13;;;;;;;23.17;3.10;;;4.60;99.90;;;;;;5895230;24;20382;-84
2023/02/23 18:09:33;;;;;;;23.23;2.67;;;4.60;99.90;;;;;;5814954;24;20021;-83
2023/02/23 18:39:03;;;;;;;20.45;2.72;;;4.70;99.90;;;;;;5906782;23;3296589;-84
2023/02/23 18:41:35;;;;;;;17.45;2.35;;;4.70;99.90;;;;;;5963767;23;20050;-84
2023/02/23 18:44:07;;;;;;;22.48;3.10;;;4.60;99.90;;;;;;6011471;23;20016;-84
2023/02/23 18:46:33;;;;;;;18.50;2.80;;;4.70;99.90;;;;;;5961717;23;20480;-83
2023/02/23 18:49:39;;;;;;;23.75;3.03;;;4.50;99.90;;;;;;5988494;23;20019;-83
2023/02/23 18:55:52;;;;;;;22.80;3.00;;;4.40;99.90;;;;;;5916203;24;20093;-83
2023/02/23 18:58:18;;;;;;;22.52;4.28;;;4.30;99.90;;;;;;5879046;24;20009;-82
2023/02/23 19:01:22;;;;;;;20.25;3.50;;;4.30;99.90;;;;;;5878468;24;20018;-84
2023/02/23 19:04:15;;;;;;;26.77;3.17;;;4.10;99.90;;;;;;5100820;27;1425978;-82
2023/02/23 19:06:43;;;;;;;19.65;2.72;;;4.10;99.90;;;;;;5100441;28;20050;-82
2023/02/23 19:09:12;;;;;;;24.55;2.83;;;4.20;99.90;;;;;;5102277;28;20067;-82
2023/02/23 19:11:41;;;;;;;21.15;2.97;;;4.40;99.90;;;;;;5109218;28;20065;-83
2023/02/23 19:14:14;;;;;;;20.88;3.33;;;4.40;99.90;;;;;;5110341;28;20035;-83
2023/02/23 19:16:44;;;;;;;21.60;2.35;;;4.50;99.90;;;;;;5104905;28;20041;-83
2023/02/23 19:19:20;;;;;;;22.45;3.33;;;4.30;99.90;;;;;;5090244;28;20046;-83
2023/02/23 19:28:35;;;;;;;25.95;3.25;;;4.10;99.90;;;;;;5105507;28;20227;-82
2023/02/23 19:31:55;;;;;;;;;;;;;;;;;;;;;
2023/02/23 19:42:17;;;;;;;;;;;;;;;;;;;;;
2023/02/23 19:45:04;;;;;;;23.80;3.70;;;3.70;99.90;;;;;;4926317;29;20048;-82
2023/02/23 19:48:18;;;;;;;17.17;2.70;;;3.50;99.90;;;;;;4908324;29;20064;-81
2023/02/23 19:50:55;;;;;;;24.13;3.65;;;3.70;99.90;;;;;;4870824;29;20057;-82
2023/02/23 19:53:54;;;;;;;25.10;4.18;;;3.50;99.90;;;;;;4886232;29;20100;-83
2023/02/23 19:56:55;;;;;;;18.63;3.70;;;3.70;99.90;;;;;;4886803;29;20092;-81
2023/02/23 19:59:32;;;;;;;22.98;4.07;;;3.70;99.90;;;;;;4879005;29;20060;-81
2023/02/23 20:06:38;;;;;;;27.98;4.57;;;3.80;99.90;;;;;;4906134;29;20416;-82
2023/02/23 20:09:24;;;;;;;26.83;3.97;;;3.80;99.90;;;;;;4902209;29;20108;-82
2023/02/23 20:12:09;;;;;;;17.40;3.40;;;3.50;99.90;;;;;;4942501;28;20074;-82
2023/02/23 20:18:52;;;;;;;;;;;;;;;;;;;;;
2023/02/23 20:25:37;;;;;;;20.65;4.10;;;3.50;99.90;;;;;;4950740;28;20403;-83
2023/02/23 20:29:00;;;;;;;24.27;3.42;;;3.80;99.90;;;;;;4942227;28;20174;-83
2023/02/23 20:34:49;;;;;;;14.32;2.72;;;3.80;99.90;;;;;;4935331;28;20054;-82
2023/02/23 20:38:03;;;;;;;17.38;2.90;;;4.00;99.90;;;;;;4943278;28;20073;-82
2023/02/23 20:40:39;;;;;;;16.48;2.55;;;3.90;99.90;;;;;;4956826;28;20046;-81
2023/02/23 20:43:50;;;;;;;17.38;2.80;;;3.90;99.90;;;;;;4920721;29;20098;-82
2023/02/23 20:47:13;;;;;;;13.60;2.25;;;3.90;99.90;;;;;;4845811;29;20159;-82
2023/02/23 20:53:58;;;;;;;17.35;2.30;;;4.00;99.90;;;;;;4863211;29;20041;-82
2023/02/23 20:56:40;;;;;;;12.68;2.03;;;4.20;99.90;;;;;;4872652;29;20045;-82
2023/02/23 20:59:44;;;;;;;14.57;2.00;;;4.00;99.90;;;;;;4864481;29;20132;-82
2023/02/23 21:05:46;;;;;;;;;;;;;;;;;;;;;
2023/02/23 21:09:01;;;;;;;10.23;2.28;;;4.20;99.90;;;;;;4900446;29;20049;-83
2023/02/23 21:12:11;;;;;;;10.77;1.70;;;4.10;99.90;;;;;;4883945;29;20060;-82
2023/02/23 21:14:48;;;;;;;11.70;1.80;;;4.20;99.90;;;;;;4875690;29;20055;-82
2023/02/23 21:17:55;;;;;;;10.52;2.42;;;4.10;99.90;;;;;;4845608;29;20053;-82
2023/02/23 21:20:36;;;;;;;8.13;1.98;;;4.20;99.90;;;;;;4855769;29;20215;-82
2023/02/23 21:31:58;;;;;;;11.07;2.00;;;4.20;99.90;;;;;;5008353;28;20064;-82
2023/02/23 21:35:39;;;;;;;;;;;;;;;;;;;;;
2023/02/23 21:42:14;;;;;;;9.20;2.05;;;4.20;99.90;;;;;;4951651;29;20070;-82
2023/02/23 21:45:32;;;;;;;8.65;1.65;;;4.20;99.90;;;;;;4923223;29;20063;-82
2023/02/23 21:48:24;;;;;;;14.10;2.30;;;4.10;99.90;;;;;;4912811;29;20048;-81
2023/02/23 21:58:28;;;;;;;13.35;2.20;;;4.10;99.90;;;;;;4897890;29;20197;-82
2023/02/23 22:05:05;;;;;;;;;;;;;;;;;;;;;
2023/02/23 22:07:49;;;;;;;10.27;1.60;;;4.30;99.90;;;;;;4839418;29;20206;-81
2023/02/23 22:10:37;;;;;;;16.67;1.85;;;4.40;99.90;;;;;;4871898;29;20053;-81
2023/02/23 22:17:29;;;;;;;14.57;1.30;;;4.30;99.90;;;;;;4898226;29;20128;-81
2023/02/23 22:20:37;;;;;;;6.93;1.40;;;4.40;99.90;;;;;;4897462;29;20048;-81
2023/02/23 22:24:05;;;;;;;8.23;1.40;;;4.50;99.90;;;;;;4913251;29;20142;-81
2023/02/23 22:27:09;;;;;;;11.10;1.42;;;4.50;99.90;;;;;;4907729;29;20143;-81
2023/02/23 22:29:49;;;;;;;13.65;3.33;;;4.50;99.90;;;;;;4934792;29;20208;-81
2023/02/23 22:32:18;;;;;;;7.05;1.15;;;4.50;99.90;;;;;;4937231;29;20055;-80
2023/02/23 22:34:59;;;;;;;6.93;1.40;;;4.60;99.90;;;;;;4934478;29;20048;-81
2023/02/23 22:38:00;;;;;;;9.15;1.40;;;4.50;99.90;;;;;;4933786;29;20051;-81
2023/02/23 22:40:26;;;;;;;11.43;1.60;;;4.50;99.90;;;;;;4921517;28;20265;-81
2023/02/23 22:47:30;;;;;;;8.55;1.90;;;4.50;99.90;;;;;;4958774;28;20047;-82
2023/02/23 22:55:46;;;;;;;;;;;;;;;;;;;;;
2023/02/23 22:58:32;;;;;;;11.20;1.90;;;4.40;99.90;;;;;;4868186;29;20049;-81
2023/02/23 23:01:08;;;;;;;6.82;1.58;;;4.30;99.90;;;;;;4838814;29;20079;-81
2023/02/23 23:04:47;;;;;;;11.55;1.83;;;4.30;99.90;;;;;;4840977;29;20129;-81
2023/02/23 23:07:58;;;;;;;18.10;1.92;;;4.20;99.90;;;;;;4814430;29;20142;-83
2023/02/23 23:11:53;;;;;;;12.90;1.90;;;4.30;99.90;;;;;;4761521;30;20155;-81
2023/02/23 23:14:39;;;;;;;11.25;1.60;;;4.30;99.90;;;;;;4739380;30;20037;-81
2023/02/23 23:17:14;;;;;;;12.00;1.52;;;4.20;99.90;;;;;;4733386;29;20040;-82
2023/02/23 23:30:47;;;;;;;9.88;1.60;;;4.30;99.90;;;;;;4801056;29;20035;-81
2023/02/23 23:33:46;;;;;;;11.63;1.42;;;4.30;99.90;;;;;;4788078;29;20055;-82
2023/02/23 23:46:49;;;;;;;9.65;2.00;;;4.10;99.90;;;;;;4873629;29;20083;-82
2023/02/23 23:50:25;;;;;;;8.02;1.38;;;4.10;99.90;;;;;;4941169;29;20058;-82
2023/02/23 23:56:38;;;;;;;10.80;1.33;;;4.00;99.90;;;;;;4980081;28;20098;-82